createdAt,value
2023-03-16T00:00:30.057Z,9.667980
2023-03-16T00:01:29.810Z,9.667994
2023-03-16T00:02:29.802Z,9.667990
2023-03-16T00:03:30.491Z,9.667950
2023-03-16T00:04:29.788Z,9.667991
2023-03-16T00:05:29.792Z,9.667951
2023-03-16T00:06:29.785Z,9.667931
2023-03-16T00:07:29.756Z,9.667991
2023-03-16T00:08:29.771Z,9.667980
2023-03-16T00:09:29.739Z,9.668032
2023-03-16T00:10:29.929Z,9.668101
2023-03-16T00:11:29.752Z,9.668058
2023-03-16T00:12:29.730Z,9.668073
2023-03-16T00:13:29.715Z,9.668002
2023-03-16T00:14:29.751Z,9.667992
2023-03-16T00:15:29.735Z,9.667954
2023-03-16T00:16:29.890Z,9.667964
2023-03-16T00:17:29.676Z,9.667933
2023-03-16T00:18:29.671Z,9.667974
2023-03-16T00:19:29.722Z,9.667986
2023-03-16T00:20:29.680Z,9.668013
2023-03-16T00:21:29.730Z,9.667995
2023-03-16T00:22:29.647Z,9.667973
2023-03-16T00:23:29.639Z,9.668024
2023-03-16T00:24:29.646Z,9.667998
2023-03-16T00:25:29.634Z,9.667992
2023-03-16T00:26:29.655Z,9.668000
2023-03-16T00:27:29.624Z,9.668055
2023-03-16T00:28:29.598Z,9.668069
2023-03-16T00:29:29.591Z,9.668008
2023-03-16T00:30:29.717Z,9.667993
2023-03-16T00:31:29.621Z,9.667963
2023-03-16T00:32:29.641Z,9.667994
2023-03-16T00:33:29.604Z,9.667951
2023-03-16T00:34:29.564Z,9.667981
2023-03-16T00:35:29.551Z,9.667965
2023-03-16T00:36:29.644Z,9.667951
2023-03-16T00:37:29.548Z,9.668011
2023-03-16T00:38:29.564Z,9.667982
2023-03-16T00:39:29.604Z,9.667975
2023-03-16T00:40:30.508Z,9.667979
2023-03-16T00:41:29.500Z,9.667958
2023-03-16T00:42:29.519Z,9.667897
2023-03-16T00:43:29.493Z,9.667921
2023-03-16T00:44:29.506Z,9.667918
2023-03-16T00:45:29.530Z,9.667953
2023-03-16T00:46:29.482Z,9.668001
2023-03-16T00:47:29.492Z,9.668017
2023-03-16T00:48:29.537Z,9.668031
2023-03-16T00:49:29.500Z,9.668078
2023-03-16T00:50:29.811Z,9.668009
2023-03-16T00:51:29.421Z,9.668068
2023-03-16T00:52:29.462Z,9.668003
2023-03-16T00:53:29.573Z,9.667961
2023-03-16T00:54:29.404Z,9.668060
2023-03-16T00:55:29.427Z,9.667985
2023-03-16T00:56:29.408Z,9.668033
2023-03-16T00:57:29.396Z,9.668097
2023-03-16T00:58:29.407Z,9.667982
2023-03-16T00:59:29.414Z,9.667972
2023-03-16T01:00:29.675Z,9.667959
2023-03-16T01:01:29.413Z,9.667965
2023-03-16T01:02:29.345Z,9.667977
2023-03-16T01:03:29.518Z,9.667951
2023-03-16T01:04:29.331Z,9.668019
2023-03-16T01:05:29.363Z,9.668045
2023-03-16T01:06:29.357Z,9.668040
2023-03-16T01:07:29.312Z,9.668022
2023-03-16T01:08:29.290Z,9.667981
2023-03-16T01:09:29.291Z,9.667988
2023-03-16T01:10:29.809Z,9.668073
2023-03-16T01:11:30.291Z,9.668083
2023-03-16T01:12:29.260Z,9.667996
2023-03-16T01:13:29.892Z,9.667984
2023-03-16T01:14:29.283Z,9.667933
2023-03-16T01:15:29.257Z,9.668017
2023-03-16T01:16:29.283Z,9.668073
2023-03-16T01:17:29.302Z,9.667993
2023-03-16T01:18:29.249Z,9.668057
2023-03-16T01:19:29.233Z,9.668092
2023-03-16T01:20:29.629Z,9.668108
2023-03-16T01:21:29.241Z,9.668052
2023-03-16T01:22:29.187Z,9.668021
2023-03-16T01:23:29.163Z,9.668105
2023-03-16T01:24:30.232Z,9.668037
2023-03-16T01:25:29.193Z,9.668049
2023-03-16T01:26:29.163Z,9.668041
2023-03-16T01:27:29.219Z,9.668034
2023-03-16T01:28:29.197Z,9.668082
2023-03-16T01:29:29.136Z,9.668081
2023-03-16T01:30:29.594Z,9.668064
2023-03-16T01:31:29.145Z,9.668040
2023-03-16T01:32:29.258Z,9.667984
2023-03-16T01:33:29.153Z,9.668015
2023-03-16T01:34:29.182Z,9.667976
2023-03-16T01:35:29.161Z,9.668007
2023-03-16T01:36:29.836Z,9.668018
2023-03-16T01:37:29.834Z,9.668014
2023-03-16T01:38:29.096Z,9.668007
2023-03-16T01:39:29.089Z,9.668016
2023-03-16T01:40:30.165Z,9.668047
2023-03-16T01:41:29.045Z,9.668043
2023-03-16T01:42:29.077Z,9.668064
2023-03-16T01:43:29.122Z,9.668051
2023-03-16T01:44:29.039Z,9.668037
2023-03-16T01:45:29.035Z,9.668021
2023-03-16T01:46:29.092Z,9.668000
2023-03-16T01:47:29.044Z,9.668032
2023-03-16T01:48:29.061Z,9.668042
2023-03-16T01:49:29.035Z,9.668052
2023-03-16T01:50:29.507Z,9.668056
2023-03-16T01:51:28.992Z,9.668041
2023-03-16T01:52:29.864Z,9.668024
2023-03-16T01:53:29.018Z,9.668013
2023-03-16T01:54:28.992Z,9.667999
2023-03-16T01:55:28.953Z,9.668051
2023-03-16T01:56:28.964Z,9.668001
2023-03-16T01:57:28.946Z,9.668025
2023-03-16T01:58:28.993Z,9.667988
2023-03-16T01:59:28.952Z,9.668078
2023-03-16T02:00:29.235Z,9.668050
2023-03-16T02:01:28.962Z,9.668069
2023-03-16T02:02:28.909Z,9.668023
2023-03-16T02:03:28.915Z,9.668038
2023-03-16T02:04:28.949Z,9.668024
2023-03-16T02:05:28.896Z,9.668035
2023-03-16T02:06:29.842Z,9.668037
2023-03-16T02:07:29.829Z,9.667995
2023-03-16T02:08:29.854Z,9.667989
2023-03-16T02:09:28.890Z,9.667953
2023-03-16T02:10:29.317Z,9.668002
2023-03-16T02:11:28.829Z,9.668009
2023-03-16T02:12:28.862Z,9.667978
2023-03-16T02:13:29.883Z,9.667990
2023-03-16T02:14:28.824Z,9.668000
2023-03-16T02:15:28.842Z,9.668018
2023-03-16T02:17:01.292Z,9.668000
2023-03-16T02:17:28.812Z,9.668027
2023-03-16T02:18:28.787Z,9.668027
2023-03-16T02:19:28.859Z,9.668014
2023-03-16T02:20:29.140Z,9.668024
2023-03-16T02:21:28.766Z,9.668003
2023-03-16T02:22:28.749Z,9.668028
2023-03-16T02:23:28.811Z,9.668003
2023-03-16T02:24:28.771Z,9.667961
2023-03-16T02:25:28.740Z,9.668016
2023-03-16T02:26:29.405Z,9.667977
2023-03-16T02:27:28.793Z,9.668004
2023-03-16T02:28:28.743Z,9.667926
2023-03-16T02:29:28.735Z,9.668022
2023-03-16T02:30:29.054Z,9.668001
2023-03-16T02:31:28.741Z,9.667977
2023-03-16T02:32:28.720Z,9.668010
2023-03-16T02:33:28.672Z,9.668003
2023-03-16T02:34:28.666Z,9.667984
2023-03-16T02:35:28.721Z,9.667998
2023-03-16T02:36:28.635Z,9.667995
2023-03-16T02:37:28.653Z,9.668016
2023-03-16T02:38:28.644Z,9.668027
2023-03-16T02:39:28.632Z,9.668047
2023-03-16T02:40:29.001Z,9.667985
2023-03-16T02:41:28.636Z,9.668000
2023-03-16T02:42:28.613Z,9.667999
2023-03-16T02:43:29.402Z,9.667973
2023-03-16T02:44:28.604Z,9.667963
2023-03-16T02:45:28.648Z,9.667915
2023-03-16T02:46:28.715Z,9.667921
2023-03-16T02:47:28.593Z,9.667964
2023-03-16T02:48:28.565Z,9.667940
2023-03-16T02:49:28.577Z,9.667979
2023-03-16T02:50:28.978Z,9.667941
2023-03-16T02:51:28.625Z,9.667953
2023-03-16T02:52:28.544Z,9.667931
2023-03-16T02:53:28.531Z,9.667969
2023-03-16T02:54:28.537Z,9.667971
2023-03-16T02:55:28.538Z,9.667985
2023-03-16T02:56:28.562Z,9.668010
2023-03-16T02:57:28.618Z,9.667980
2023-03-16T02:58:28.507Z,9.667963
2023-03-16T02:59:28.514Z,9.667936
2023-03-16T03:00:28.733Z,9.667949
2023-03-16T03:01:28.488Z,9.667926
2023-03-16T03:02:28.498Z,9.667899
2023-03-16T03:03:28.487Z,9.668010
2023-03-16T03:04:28.469Z,9.667940
2023-03-16T03:05:29.369Z,9.667898
2023-03-16T03:06:28.425Z,9.667958
2023-03-16T03:07:28.461Z,9.668002
2023-03-16T03:08:28.440Z,9.668008
2023-03-16T03:09:28.458Z,9.667994
2023-03-16T03:10:28.716Z,9.668012
2023-03-16T03:11:29.391Z,9.667990
2023-03-16T03:12:28.408Z,9.667979
2023-03-16T03:13:28.420Z,9.667945
2023-03-16T03:14:28.395Z,9.667979
2023-03-16T03:15:28.375Z,9.667965
2023-03-16T03:16:28.445Z,9.667989
2023-03-16T03:17:28.363Z,9.667891
2023-03-16T03:18:28.357Z,9.668039
2023-03-16T03:19:28.369Z,9.667987
2023-03-16T03:20:28.533Z,9.667948
2023-03-16T03:21:28.328Z,9.667951
2023-03-16T03:22:28.427Z,9.667961
2023-03-16T03:23:28.320Z,9.668036
2023-03-16T03:24:28.304Z,9.667963
2023-03-16T03:25:28.311Z,9.667961
2023-03-16T03:26:28.335Z,9.667982
2023-03-16T03:27:28.324Z,9.667974
2023-03-16T03:28:28.283Z,9.668012
2023-03-16T03:29:28.305Z,9.667994
2023-03-16T03:30:28.601Z,9.668001
2023-03-16T03:31:28.282Z,9.668023
2023-03-16T03:32:28.305Z,9.668015
2023-03-16T03:33:28.221Z,9.668002
2023-03-16T03:34:28.323Z,9.667994
2023-03-16T03:35:28.272Z,9.667962
2023-03-16T03:36:28.212Z,9.667993
2023-03-16T03:37:28.218Z,9.667999
2023-03-16T03:38:28.224Z,9.668025
2023-03-16T03:39:28.199Z,9.667929
2023-03-16T03:40:28.415Z,9.667986
2023-03-16T03:41:28.217Z,9.667979
2023-03-16T03:42:28.199Z,9.667972
2023-03-16T03:43:28.182Z,9.667960
2023-03-16T03:44:28.179Z,9.667994
2023-03-16T03:45:28.244Z,9.668011
2023-03-16T03:46:28.381Z,9.667972
2023-03-16T04:05:56.534Z,9.667904
2023-03-16T04:06:56.558Z,9.667944
2023-03-16T04:07:56.497Z,9.667769
2023-03-16T04:08:56.512Z,9.667863
2023-03-16T04:09:56.505Z,9.667813
2023-03-16T04:10:56.525Z,9.667851
2023-03-16T04:11:56.524Z,9.667765
2023-03-16T04:12:56.473Z,9.667739
2023-03-16T04:13:56.479Z,9.667721
2023-03-16T04:14:56.462Z,9.667694
2023-03-16T04:15:56.456Z,9.667747
2023-03-16T04:16:56.555Z,9.667693
2023-03-16T04:17:56.478Z,9.667770
2023-03-16T04:18:56.424Z,9.667790
2023-03-16T04:19:56.443Z,9.667690
2023-03-16T04:20:56.380Z,9.667782
2023-03-16T04:21:56.401Z,9.667828
2023-03-16T04:22:56.413Z,9.667999
2023-03-16T04:23:56.386Z,9.667963
2023-03-16T04:24:56.410Z,9.667899
2023-03-16T04:25:56.380Z,9.667976
2023-03-16T04:26:56.374Z,9.667985
2023-03-16T04:27:56.388Z,9.668005
2023-03-16T04:28:56.345Z,9.667984
2023-03-16T04:29:56.405Z,9.667968
2023-03-16T04:30:56.357Z,9.667982
2023-03-16T04:31:56.418Z,9.667994
2023-03-16T04:32:57.449Z,9.667999
2023-03-16T04:33:57.098Z,9.668018
2023-03-16T04:34:56.363Z,9.668013
2023-03-16T04:35:56.348Z,9.668015
2023-03-16T04:36:56.292Z,9.668038
2023-03-16T04:37:56.260Z,9.667987
2023-03-16T04:38:56.298Z,9.667997
2023-03-16T04:39:56.255Z,9.667965
2023-03-16T04:40:56.251Z,9.668009
2023-03-16T04:41:56.254Z,9.668010
2023-03-16T04:42:57.087Z,9.667986
2023-03-16T04:43:56.995Z,9.668002
2023-03-16T04:44:56.225Z,9.667995
2023-03-16T04:45:56.308Z,9.668003
2023-03-16T04:46:56.246Z,9.668041
2023-03-16T04:47:56.184Z,9.667995
2023-03-16T04:48:56.210Z,9.668008
2023-03-16T04:49:56.194Z,9.668004
2023-03-16T04:50:56.163Z,9.668010
2023-03-16T04:51:56.178Z,9.668034
2023-03-16T04:52:56.178Z,9.668048
2023-03-16T04:53:56.323Z,9.668044
2023-03-16T04:54:56.163Z,9.667981
2023-03-16T04:55:56.166Z,9.668026
2023-03-16T04:56:56.184Z,9.668068
2023-03-16T04:57:56.190Z,9.667996
2023-03-16T04:58:56.104Z,9.668018
2023-03-16T04:59:56.112Z,9.667993
2023-03-16T05:00:56.099Z,9.668029
2023-03-16T05:01:56.195Z,9.668050
2023-03-16T05:02:56.162Z,9.668061
2023-03-16T05:03:57.918Z,9.668069
2023-03-16T05:04:57.084Z,9.668047
2023-03-16T05:06:02.310Z,9.668037
2023-03-16T05:06:56.072Z,9.668038
2023-03-16T05:07:56.144Z,9.668062
2023-03-16T05:08:56.086Z,9.668028
2023-03-16T05:09:56.176Z,9.668032
2023-03-16T05:10:56.391Z,9.668050
2023-03-16T05:11:56.023Z,9.668031
2023-03-16T05:12:56.040Z,9.667984
2023-03-16T05:13:56.989Z,9.667994
2023-03-16T05:14:55.992Z,9.668011
2023-03-16T05:15:56.017Z,9.668039
2023-03-16T05:16:56.004Z,9.668003
2023-03-16T05:17:56.644Z,9.667967
2023-03-16T05:18:55.976Z,9.667976
2023-03-16T05:19:56.063Z,9.668056
2023-03-16T05:20:55.934Z,9.668008
2023-03-16T05:21:57.430Z,9.668043
2023-03-16T05:22:55.945Z,9.667997
2023-03-16T05:23:55.959Z,9.667993
2023-03-16T05:24:56.214Z,9.667997
2023-03-16T05:25:55.915Z,9.667996
2023-03-16T05:26:55.914Z,9.667999
2023-03-16T05:27:55.912Z,9.668016
2023-03-16T05:28:55.894Z,9.668005
2023-03-16T05:29:55.910Z,9.668041
2023-03-16T05:30:55.923Z,9.668029
2023-03-16T05:31:55.951Z,9.668026
2023-03-16T05:32:56.012Z,9.668062
2023-03-16T05:33:55.870Z,9.668059
2023-03-16T05:34:55.873Z,9.668040
2023-03-16T05:35:55.874Z,9.668047
2023-03-16T05:36:55.834Z,9.668039
2023-03-16T05:37:55.841Z,9.668056
2023-03-16T05:38:55.873Z,9.668046
2023-03-16T05:39:55.868Z,9.667999
2023-03-16T05:40:55.806Z,9.668016
2023-03-16T05:41:55.846Z,9.668030
2023-03-16T05:42:55.810Z,9.668015
2023-03-16T05:43:55.785Z,9.668044
2023-03-16T05:44:55.816Z,9.668027
2023-03-16T05:45:55.785Z,9.668018
2023-03-16T05:46:55.845Z,9.668011
2023-03-16T05:47:55.953Z,9.668031
2023-03-16T05:48:55.807Z,9.667995
2023-03-16T05:49:56.649Z,9.667994
2023-03-16T05:50:55.762Z,9.668002
2023-03-16T05:51:55.773Z,9.668006
2023-03-16T05:52:55.743Z,9.668060
2023-03-16T05:53:55.704Z,9.668063
2023-03-16T05:54:55.721Z,9.668077
2023-03-16T05:55:55.698Z,9.668027
2023-03-16T05:56:55.743Z,9.668045
2023-03-16T05:57:55.733Z,9.667992
2023-03-16T05:58:55.700Z,9.668030
2023-03-16T05:59:56.689Z,9.668046
2023-03-16T06:00:55.655Z,9.667990
2023-03-16T06:01:55.681Z,9.668018
2023-03-16T06:02:55.757Z,9.668072
2023-03-16T06:03:55.791Z,9.668047
2023-03-16T06:04:56.598Z,9.668010
2023-03-16T06:05:55.627Z,9.668013
2023-03-16T06:06:55.630Z,9.667978
2023-03-16T06:07:55.652Z,9.667982
2023-03-16T06:08:55.623Z,9.668032
2023-03-16T06:09:55.640Z,9.668036
2023-03-16T06:10:55.608Z,9.668008
2023-03-16T06:11:55.624Z,9.668075
2023-03-16T06:12:55.617Z,9.668027
2023-03-16T06:13:55.560Z,9.668136
2023-03-16T06:14:55.555Z,9.668021
2023-03-16T06:15:55.599Z,9.668000
2023-03-16T06:16:55.563Z,9.667989
2023-03-16T06:17:55.539Z,9.668044
2023-03-16T06:18:56.593Z,9.668040
2023-03-16T06:19:55.568Z,9.668032
2023-03-16T06:20:55.506Z,9.668055
2023-03-16T06:21:55.599Z,9.668049
2023-03-16T06:22:56.434Z,9.668038
2023-03-16T06:23:55.561Z,9.668025
2023-03-16T06:24:55.540Z,9.668013
2023-03-16T06:25:55.507Z,9.668064
2023-03-16T06:26:55.518Z,9.668045
2023-03-16T06:27:55.489Z,9.668046
2023-03-16T06:28:55.556Z,9.668014
2023-03-16T06:29:55.441Z,9.668056
2023-03-16T06:30:55.512Z,9.668060
2023-03-16T06:31:55.661Z,9.668051
2023-03-16T06:32:55.524Z,9.668039
2023-03-16T06:33:55.474Z,9.668071
2023-03-16T06:34:55.432Z,9.668069
2023-03-16T06:35:55.500Z,9.668079
2023-03-16T06:36:55.435Z,9.668058
2023-03-16T06:37:55.430Z,9.668037
2023-03-16T06:38:55.451Z,9.668099
2023-03-16T06:39:55.431Z,9.668056
2023-03-16T06:40:55.447Z,9.668060
2023-03-16T06:41:55.427Z,9.668100
2023-03-16T06:42:55.387Z,9.668105
2023-03-16T06:43:55.376Z,9.668074
2023-03-16T06:44:55.359Z,9.668116
2023-03-16T06:45:56.429Z,9.668093
2023-03-16T06:46:55.354Z,9.668134
2023-03-16T06:47:56.132Z,9.668103
2023-03-16T06:48:55.341Z,9.668075
2023-03-16T06:49:55.360Z,9.668079
2023-03-16T06:50:55.343Z,9.668082
2023-03-16T06:51:55.293Z,9.668095
2023-03-16T06:52:55.289Z,9.668047
2023-03-16T06:53:55.299Z,9.668007
2023-03-16T06:54:55.261Z,9.668070
2023-03-16T06:55:55.278Z,9.668035
2023-03-16T06:56:55.269Z,9.668040
2023-03-16T06:57:55.291Z,9.668006
2023-03-16T06:58:55.246Z,9.667972
2023-03-16T06:59:55.322Z,9.667951
2023-03-16T07:00:55.390Z,9.668031
2023-03-16T07:01:55.307Z,9.668052
2023-03-16T07:02:55.212Z,9.668098
2023-03-16T07:03:55.229Z,9.668088
2023-03-16T07:04:55.198Z,9.668044
2023-03-16T07:05:55.199Z,9.667994
2023-03-16T07:06:55.237Z,9.667999
2023-03-16T07:07:55.182Z,9.668061
2023-03-16T07:08:55.186Z,9.667965
2023-03-16T07:09:55.157Z,9.668067
2023-03-16T07:10:55.158Z,9.668073
2023-03-16T07:11:55.178Z,9.668100
2023-03-16T07:12:55.155Z,9.668093
2023-03-16T07:13:55.126Z,9.668045
2023-03-16T07:14:55.129Z,9.668011
2023-03-16T07:15:55.154Z,9.668038
2023-03-16T07:16:55.220Z,9.668009
2023-03-16T07:17:55.113Z,9.667984
2023-03-16T07:18:55.096Z,9.667974
2023-03-16T07:19:55.095Z,9.667989
2023-03-16T07:20:55.088Z,9.668010
2023-03-16T07:21:55.079Z,9.668037
2023-03-16T07:22:55.068Z,9.668088
2023-03-16T07:23:55.098Z,9.668086
2023-03-16T07:24:55.060Z,9.668058
2023-03-16T07:25:55.057Z,9.668104
2023-03-16T07:26:55.032Z,9.668056
2023-03-16T07:27:55.065Z,9.668081
2023-03-16T07:28:57.878Z,9.668074
2023-03-16T07:29:55.142Z,9.668094
2023-03-16T07:31:03.326Z,9.668092
2023-03-16T07:31:57.128Z,9.668031
2023-03-16T07:32:55.080Z,9.668047
2023-03-16T07:33:55.036Z,9.668033
2023-03-16T07:34:55.754Z,9.668010
2023-03-16T07:35:54.982Z,9.667987
2023-03-16T07:36:54.967Z,9.668028
2023-03-16T07:37:54.991Z,9.668029
2023-03-16T07:38:54.974Z,9.668029
2023-03-16T07:39:54.992Z,9.668066
2023-03-16T07:40:54.951Z,9.668041
2023-03-16T07:41:54.942Z,9.667970
2023-03-16T07:42:54.920Z,9.668002
2023-03-16T07:43:54.921Z,9.668050
2023-03-16T07:44:54.935Z,9.668014
2023-03-16T07:45:54.977Z,9.668014
2023-03-16T07:46:54.887Z,9.668059
2023-03-16T07:47:54.885Z,9.667999
2023-03-16T07:48:54.858Z,9.667989
2023-03-16T07:49:54.933Z,9.667986
2023-03-16T07:50:54.860Z,9.668003
2023-03-16T07:51:54.850Z,9.667998
2023-03-16T07:52:54.872Z,9.667951
2023-03-16T07:53:54.820Z,9.668012
2023-03-16T07:54:54.876Z,9.668036
2023-03-16T07:55:54.826Z,9.668021
2023-03-16T07:56:54.802Z,9.667986
2023-03-16T07:57:54.815Z,9.668016
2023-03-16T07:58:54.784Z,9.667986
2023-03-16T07:59:54.797Z,9.667978
2023-03-16T08:00:54.823Z,9.668009
2023-03-16T08:01:54.902Z,9.667979
2023-03-16T08:02:54.840Z,9.667988
2023-03-16T08:03:54.791Z,9.667985
2023-03-16T08:04:54.746Z,9.668008
2023-03-16T08:05:54.769Z,9.667998
2023-03-16T08:06:54.730Z,9.667965
2023-03-16T08:07:54.743Z,9.668004
2023-03-16T08:08:54.712Z,9.668026
2023-03-16T08:09:54.698Z,9.668012
2023-03-16T08:10:56.630Z,9.668033
2023-03-16T08:11:55.681Z,9.667999
2023-03-16T08:12:54.822Z,9.668020
2023-03-16T08:13:54.680Z,9.667996
2023-03-16T08:14:54.705Z,9.667971
2023-03-16T08:15:54.677Z,9.667984
2023-03-16T08:16:54.658Z,9.667977
2023-03-16T08:17:54.720Z,9.667963
2023-03-16T08:18:54.651Z,9.667918
2023-03-16T08:19:54.628Z,9.667906
2023-03-16T08:20:54.633Z,9.667945
2023-03-16T08:22:01.386Z,9.667970
2023-03-16T08:22:56.760Z,9.667974
2023-03-16T08:23:54.587Z,9.668030
2023-03-16T08:24:54.618Z,9.667995
2023-03-16T08:25:54.635Z,9.667990
2023-03-16T08:26:54.578Z,9.667942
2023-03-16T08:27:54.574Z,9.667991
2023-03-16T08:28:54.605Z,9.668021
2023-03-16T08:29:54.556Z,9.668054
2023-03-16T08:30:54.570Z,9.668071
2023-03-16T08:31:54.576Z,9.668093
2023-03-16T08:32:54.551Z,9.668047
2023-03-16T08:33:54.555Z,9.668020
2023-03-16T08:34:54.492Z,9.668035
2023-03-16T08:35:54.553Z,9.668037
2023-03-16T08:36:54.530Z,9.668026
2023-03-16T08:37:54.517Z,9.668044
2023-03-16T08:39:06.048Z,9.667957
2023-03-16T08:39:56.507Z,9.667938
2023-03-16T08:40:54.467Z,9.667937
2023-03-16T08:41:54.489Z,9.667969
2023-03-16T08:42:54.469Z,9.667999
2023-03-16T08:43:54.438Z,9.668015
2023-03-16T08:44:54.440Z,9.668028
2023-03-16T08:45:54.430Z,9.667988
2023-03-16T08:46:54.436Z,9.668048
2023-03-16T08:47:54.402Z,9.668008
2023-03-16T08:48:54.401Z,9.668058
2023-03-16T08:49:54.397Z,9.668071
2023-03-16T08:50:54.442Z,9.668054
2023-03-16T08:51:54.390Z,9.667985
2023-03-16T08:52:54.405Z,9.668006
2023-03-16T08:53:55.115Z,9.667965
2023-03-16T08:55:03.096Z,9.667989
2023-03-16T08:55:56.358Z,9.667943
2023-03-16T08:56:54.365Z,9.667927
2023-03-16T08:57:55.049Z,9.668015
2023-03-16T08:58:54.322Z,9.667999
2023-03-16T08:59:54.386Z,9.668013
2023-03-16T09:00:55.154Z,9.668050
2023-03-16T09:01:54.379Z,9.668026
2023-03-16T09:02:54.317Z,9.668020
2023-03-16T09:03:54.327Z,9.668058
2023-03-16T09:04:54.281Z,9.667989
2023-03-16T09:05:56.049Z,9.668054
2023-03-16T09:07:09.886Z,9.667989
2023-03-16T09:07:56.316Z,9.667997
2023-03-16T09:08:54.260Z,9.668007
2023-03-16T09:09:54.303Z,9.668056
2023-03-16T09:10:54.267Z,9.668021
2023-03-16T09:11:54.248Z,9.667970
2023-03-16T09:12:54.362Z,9.667997
2023-03-16T09:13:54.299Z,9.667994
2023-03-16T09:14:54.209Z,9.668018
2023-03-16T09:15:54.292Z,9.668030
2023-03-16T09:16:54.300Z,9.667976
2023-03-16T09:17:55.066Z,9.667969
2023-03-16T09:18:54.247Z,9.667963
2023-03-16T09:19:57.748Z,9.668047
2023-03-16T09:20:56.966Z,9.668025
2023-03-16T09:21:54.174Z,9.667986
2023-03-16T09:22:54.155Z,9.668008
2023-03-16T09:23:55.198Z,9.667971
2023-03-16T09:24:54.161Z,9.667980
2023-03-16T09:25:54.281Z,9.668019
2023-03-16T09:26:54.207Z,9.668024
2023-03-16T09:27:54.217Z,9.668013
2023-03-16T09:28:54.140Z,9.668005
2023-03-16T09:29:54.134Z,9.667962
2023-03-16T09:30:54.131Z,9.667982
2023-03-16T09:31:54.160Z,9.667976
2023-03-16T09:32:54.075Z,9.668001
2023-03-16T09:33:54.086Z,9.667990
2023-03-16T09:34:54.094Z,9.668000
2023-03-16T09:35:54.086Z,9.668024
2023-03-16T09:36:55.076Z,9.667990
2023-03-16T09:38:07.347Z,9.667988
2023-03-16T09:38:56.145Z,9.668000
2023-03-16T09:39:57.952Z,9.667956
2023-03-16T09:40:56.041Z,9.667976
2023-03-16T09:41:54.055Z,9.667986
2023-03-16T09:42:54.022Z,9.667980
2023-03-16T09:43:54.030Z,9.668017
2023-03-16T09:44:54.020Z,9.667982
2023-03-16T09:45:54.089Z,9.667952
2023-03-16T09:46:53.995Z,9.667982
2023-03-16T09:47:53.953Z,9.667983
2023-03-16T09:48:55.028Z,9.667962
2023-03-16T09:49:54.016Z,9.667970
2023-03-16T09:50:54.326Z,9.667956
2023-03-16T09:51:53.986Z,9.667974
2023-03-16T09:52:53.949Z,9.667996
2023-03-16T09:53:53.946Z,9.667953
2023-03-16T09:54:53.966Z,9.667959
2023-03-16T09:55:53.978Z,9.667982
2023-03-16T09:56:53.918Z,9.667948
2023-03-16T09:57:53.929Z,9.667944
2023-03-16T09:58:54.674Z,9.667954
2023-03-16T09:59:53.904Z,9.667954
2023-03-16T10:00:53.963Z,9.667943
2023-03-16T10:01:53.897Z,9.667961
2023-03-16T10:02:53.867Z,9.667989
2023-03-16T10:03:53.945Z,9.668010
2023-03-16T10:04:53.851Z,9.668026
2023-03-16T10:05:53.866Z,9.667969
2023-03-16T10:06:53.879Z,9.668021
2023-03-16T10:07:53.832Z,9.667988
2023-03-16T10:08:53.881Z,9.667989
2023-03-16T10:09:54.574Z,9.667944
2023-03-16T10:10:53.904Z,9.667959
2023-03-16T10:11:53.881Z,9.668031
2023-03-16T10:12:53.827Z,9.667997
2023-03-16T10:13:53.776Z,9.668006
2023-03-16T10:14:53.821Z,9.668026
2023-03-16T10:15:53.778Z,9.668012
2023-03-16T10:16:53.931Z,9.668015
2023-03-16T10:17:53.783Z,9.668036
2023-03-16T10:18:53.751Z,9.668006
2023-03-16T10:19:53.752Z,9.668016
2023-03-16T10:20:53.762Z,9.668023
2023-03-16T10:21:53.785Z,9.667994
2023-03-16T10:22:53.736Z,9.667994
2023-03-16T10:23:53.715Z,9.667990
2023-03-16T10:24:53.711Z,9.667970
2023-03-16T10:25:53.688Z,9.667994
2023-03-16T10:26:53.736Z,9.667993
2023-03-16T10:27:53.756Z,9.668007
2023-03-16T10:28:53.675Z,9.667992
2023-03-16T10:29:53.663Z,9.668007
2023-03-16T10:30:53.673Z,9.667971
2023-03-16T10:31:53.722Z,9.668040
2023-03-16T10:32:53.745Z,9.667982
2023-03-16T10:33:53.692Z,9.667945
2023-03-16T10:34:53.668Z,9.667997
2023-03-16T10:35:53.650Z,9.667984
2023-03-16T10:36:53.614Z,9.667951
2023-03-16T10:37:53.642Z,9.667997
2023-03-16T10:38:54.664Z,9.668051
2023-03-16T10:39:53.610Z,9.667986
2023-03-16T10:40:53.606Z,9.667998
2023-03-16T10:41:53.667Z,9.667976
2023-03-16T10:42:53.612Z,9.667945
2023-03-16T10:43:53.611Z,9.667895
2023-03-16T10:44:53.585Z,9.667938
2023-03-16T10:45:53.629Z,9.667984
2023-03-16T10:46:53.682Z,9.668006
2023-03-16T10:47:53.553Z,9.668006
2023-03-16T10:48:53.584Z,9.668021
2023-03-16T10:49:53.522Z,9.667998
2023-03-16T10:50:53.535Z,9.667928
2023-03-16T10:51:53.501Z,9.667953
2023-03-16T10:52:53.553Z,9.667964
2023-03-16T10:53:53.538Z,9.667936
2023-03-16T10:54:53.526Z,9.667988
2023-03-16T10:55:53.499Z,9.667980
2023-03-16T10:56:53.485Z,9.667903
2023-03-16T10:57:53.494Z,9.667968
2023-03-16T10:58:53.470Z,9.667920
2023-03-16T10:59:54.198Z,9.667935
2023-03-16T11:00:53.614Z,9.667962
2023-03-16T11:01:53.446Z,9.667920
2023-03-16T11:02:53.451Z,9.667964
2023-03-16T11:03:53.427Z,9.667932
2023-03-16T11:04:53.478Z,9.667996
2023-03-16T11:05:53.500Z,9.667947
2023-03-16T11:06:53.408Z,9.667990
2023-03-16T11:07:53.401Z,9.667926
2023-03-16T11:08:53.913Z,9.667983
2023-03-16T11:09:53.396Z,9.668046
2023-03-16T11:10:56.118Z,9.668008
2023-03-16T11:11:54.354Z,9.667967
2023-03-16T11:12:53.345Z,9.667980
2023-03-16T11:13:53.349Z,9.667966
2023-03-16T11:14:53.350Z,9.668032
2023-03-16T11:15:53.401Z,9.667928
2023-03-16T11:16:53.421Z,9.667951
2023-03-16T11:17:53.334Z,9.668025
2023-03-16T11:18:53.293Z,9.668073
2023-03-16T11:19:53.309Z,9.668027
2023-03-16T11:20:53.301Z,9.668011
2023-03-16T11:21:53.297Z,9.668065
2023-03-16T11:22:53.294Z,9.668055
2023-03-16T11:23:53.282Z,9.668012
2023-03-16T11:24:53.321Z,9.668020
2023-03-16T11:25:53.272Z,9.667991
2023-03-16T11:26:53.281Z,9.668007
2023-03-16T11:27:53.317Z,9.668011
2023-03-16T11:28:53.220Z,9.667990
2023-03-16T11:29:53.244Z,9.668014
2023-03-16T11:30:53.297Z,9.667997
2023-03-16T11:31:53.240Z,9.667983
2023-03-16T11:32:53.227Z,9.668015
2023-03-16T11:33:53.225Z,9.667968
2023-03-16T11:34:53.208Z,9.667967
2023-03-16T11:35:59.313Z,9.667969
2023-03-16T11:36:55.200Z,9.667982
2023-03-16T11:37:53.197Z,9.667950
2023-03-16T11:38:54.531Z,9.667933
2023-03-16T11:39:53.235Z,9.667940
2023-03-16T11:40:53.124Z,9.667971
2023-03-16T11:41:53.127Z,9.667921
2023-03-16T11:42:53.139Z,9.667926
2023-03-16T11:43:53.166Z,9.667953
2023-03-16T11:44:53.102Z,9.667975
2023-03-16T11:45:53.109Z,9.667979
2023-03-16T11:46:53.140Z,9.668006
2023-03-16T11:47:53.115Z,9.667997
2023-03-16T11:48:53.111Z,9.667994
2023-03-16T11:49:53.067Z,9.668025
2023-03-16T11:50:53.051Z,9.668035
2023-03-16T11:51:53.082Z,9.668031
2023-03-16T11:52:53.053Z,9.668035
2023-03-16T11:53:53.097Z,9.668014
2023-03-16T11:54:53.053Z,9.668008
2023-03-16T11:55:53.019Z,9.668008
2023-03-16T11:56:53.012Z,9.667962
2023-03-16T11:57:53.009Z,9.667990
2023-03-16T11:58:53.002Z,9.668006
2023-03-16T12:00:01.208Z,9.668013
2023-03-16T12:00:55.007Z,9.668009
2023-03-16T12:02:00.104Z,9.667994
2023-03-16T12:02:55.084Z,9.667932